Time;durP1;ratioP1;P1;durP2;ratioP2;P2;SDS_P1;SDS_P2;PMS_P1;PMS_P2;Temp;Humidity;BMP_temperature;BMP_pressure;BME280_temperature;BME280_humidity;BME280_pressure;Samples;Min_cycle;Max_cycle;Signal;HPM_P1;HPM_P2
2021/05/20 00:02:23;;;;;;;1999.90;999.90;;;7.70;99.90;;;;;;4918735;29;20209;-93
2021/05/20 00:04:48;;;;;;;1999.90;999.90;;;7.70;99.90;;;;;;4918565;29;20193;-90
2021/05/20 00:07:14;;;;;;;1999.90;999.90;;;7.70;99.90;;;;;;4918216;29;20540;-91
2021/05/20 00:09:41;;;;;;;1999.90;999.90;;;7.60;99.90;;;;;;4918214;29;20575;-92
2021/05/20 00:12:07;;;;;;;1999.90;999.90;;;7.60;99.90;;;;;;4918396;29;20197;-91
2021/05/20 00:14:33;;;;;;;1999.90;999.90;;;7.60;99.90;;;;;;4918225;29;20178;-91
2021/05/20 00:16:59;;;;;;;1999.90;999.90;;;7.60;99.90;;;;;;4918056;29;20192;-91
2021/05/20 00:19:25;;;;;;;1999.90;999.90;;;7.60;99.90;;;;;;4918612;29;20557;-92
2021/05/20 00:21:51;;;;;;;1999.90;999.90;;;7.60;99.90;;;;;;4918124;29;20205;-92
2021/05/20 00:24:19;;;;;;;1999.90;999.90;;;7.60;99.90;;;;;;4917888;29;20185;-90
2021/05/20 00:26:45;;;;;;;1999.90;999.90;;;7.60;99.90;;;;;;4917959;29;20182;-92
2021/05/20 00:29:13;;;;;;;1999.90;999.90;;;7.60;99.90;;;;;;4918280;29;20178;-92
2021/05/20 00:31:41;;;;;;;1999.90;999.90;;;7.60;99.90;;;;;;4917878;29;20186;-91
2021/05/20 00:34:07;;;;;;;1999.90;999.90;;;7.60;99.90;;;;;;4918285;29;20185;-92
2021/05/20 00:36:33;;;;;;;1999.90;999.90;;;7.50;99.90;;;;;;4917629;29;20194;-90
2021/05/20 00:39:07;;;;;;;1999.90;999.90;;;7.50;99.90;;;;;;4917738;29;20190;-91
2021/05/20 00:41:33;;;;;;;1999.90;999.90;;;7.40;99.90;;;;;;4918229;29;20189;-91
2021/05/20 00:43:59;;;;;;;1999.90;999.90;;;7.40;99.90;;;;;;4917687;29;20225;-91
2021/05/20 00:46:25;;;;;;;1999.90;999.90;;;7.40;99.90;;;;;;4918364;29;20273;-90
2021/05/20 00:48:51;;;;;;;1999.90;999.90;;;7.40;99.90;;;;;;4917838;29;20189;-92
2021/05/20 00:51:17;;;;;;;1999.90;999.90;;;7.40;99.90;;;;;;4918039;29;20217;-91
2021/05/20 00:53:43;;;;;;;1999.90;999.90;;;7.40;99.90;;;;;;4918183;29;20213;-92
2021/05/20 00:56:11;;;;;;;1999.90;999.90;;;7.40;99.90;;;;;;4917944;29;20192;-92
2021/05/20 00:58:38;;;;;;;1999.90;999.90;;;7.40;99.90;;;;;;4917779;29;20194;-91
2021/05/20 01:01:07;;;;;;;1999.90;999.90;;;7.30;99.90;;;;;;4917699;29;20189;-91
2021/05/20 01:03:33;;;;;;;1999.90;999.90;;;7.30;99.90;;;;;;4917563;29;20228;-91
2021/05/20 01:05:59;;;;;;;1999.90;999.90;;;7.30;99.90;;;;;;4916970;29;20182;-92
2021/05/20 01:08:25;;;;;;;1999.90;999.90;;;7.20;99.90;;;;;;4917277;29;20190;-91
2021/05/20 01:10:54;;;;;;;1999.90;999.90;;;7.20;99.90;;;;;;4917399;29;20559;-92
2021/05/20 01:13:21;;;;;;;1999.90;999.90;;;7.20;99.90;;;;;;4917534;29;20646;-89
2021/05/20 01:15:47;;;;;;;1999.90;999.90;;;7.20;99.90;;;;;;4917229;29;20185;-91
2021/05/20 01:18:15;;;;;;;1999.90;999.90;;;7.10;99.90;;;;;;4917445;29;20242;-90
2021/05/20 01:20:43;;;;;;;1999.90;999.90;;;7.10;99.90;;;;;;4917309;29;20225;-91
2021/05/20 01:23:11;;;;;;;1999.90;999.90;;;7.20;99.90;;;;;;4917500;29;20250;-92
2021/05/20 01:25:39;;;;;;;1999.90;999.90;;;7.10;99.90;;;;;;4917151;29;20189;-91
2021/05/20 01:28:12;;;;;;;1999.90;999.90;;;7.20;99.90;;;;;;4917207;29;20284;-92
2021/05/20 01:30:39;;;;;;;1999.90;999.90;;;7.10;99.90;;;;;;4917360;29;20213;-91
2021/05/20 01:33:05;;;;;;;1999.90;999.90;;;7.10;99.90;;;;;;4916916;29;20637;-91
2021/05/20 01:35:31;;;;;;;1999.90;999.90;;;7.10;99.90;;;;;;4917059;29;20194;-92
2021/05/20 01:40:53;;;;;;;1999.90;999.90;;;7.10;99.90;;;;;;4918081;29;20194;-91
2021/05/20 01:43:19;;;;;;;1999.90;999.90;;;7.10;99.90;;;;;;4917051;29;20202;-91
2021/05/20 01:45:49;;;;;;;1999.90;999.90;;;7.10;99.90;;;;;;4916971;29;20194;-92
2021/05/20 01:48:15;;;;;;;1999.90;999.90;;;7.10;99.90;;;;;;4916852;29;20182;-90
2021/05/20 01:50:41;;;;;;;1999.90;999.90;;;7.10;99.90;;;;;;4916750;29;20669;-91
2021/05/20 01:53:08;;;;;;;1999.90;999.90;;;7.10;99.90;;;;;;4916989;29;20302;-91
2021/05/20 01:55:33;;;;;;;1999.90;999.90;;;7.10;99.90;;;;;;4917481;29;20174;-90
2021/05/20 01:57:59;;;;;;;1999.90;999.90;;;7.10;99.90;;;;;;4917093;29;20239;-90
2021/05/20 02:00:28;;;;;;;1999.90;999.90;;;7.10;99.90;;;;;;4916836;29;20188;-90
2021/05/20 02:02:53;;;;;;;1999.90;999.90;;;7.10;99.90;;;;;;4916991;29;20247;-91
2021/05/20 02:05:21;;;;;;;1999.90;999.90;;;7.10;99.90;;;;;;4916791;29;20265;-93
2021/05/20 02:07:47;;;;;;;1999.90;999.90;;;7.10;99.90;;;;;;4916762;29;20182;-92
2021/05/20 02:10:13;;;;;;;1999.90;999.90;;;7.10;99.90;;;;;;4916797;29;20234;-91
2021/05/20 02:12:39;;;;;;;1999.90;999.90;;;7.00;99.90;;;;;;4916613;29;20631;-90
2021/05/20 02:15:05;;;;;;;1999.90;999.90;;;7.00;99.90;;;;;;4916733;29;20196;-90
2021/05/20 02:17:32;;;;;;;1999.90;999.90;;;7.10;99.90;;;;;;4918909;29;20273;-91
2021/05/20 02:19:57;;;;;;;1999.90;999.90;;;7.10;99.90;;;;;;4920239;29;20181;-92
2021/05/20 02:22:24;;;;;;;1999.90;999.90;;;7.10;99.90;;;;;;4920309;29;20210;-91
2021/05/20 02:24:51;;;;;;;1999.90;999.90;;;7.10;99.90;;;;;;4920442;29;20204;-91
2021/05/20 02:27:17;;;;;;;1999.90;999.90;;;7.00;99.90;;;;;;4920307;29;20178;-91
2021/05/20 02:29:45;;;;;;;1999.90;999.90;;;7.00;99.90;;;;;;4920261;29;20229;-91
2021/05/20 02:32:11;;;;;;;1999.90;999.90;;;7.00;99.90;;;;;;4920347;29;20185;-93
2021/05/20 02:34:36;;;;;;;1999.90;999.90;;;7.00;99.90;;;;;;4920549;29;20186;-91
2021/05/20 02:37:02;;;;;;;1999.90;999.90;;;7.00;99.90;;;;;;4925217;29;20613;-91
2021/05/20 02:39:28;;;;;;;1999.90;999.90;;;7.00;99.90;;;;;;4927885;29;20283;-91
2021/05/20 02:41:53;;;;;;;1999.90;999.90;;;6.90;99.90;;;;;;4919924;29;20198;-91
2021/05/20 02:44:19;;;;;;;1999.90;999.90;;;6.90;99.90;;;;;;4919919;29;20272;-91
2021/05/20 02:46:45;;;;;;;1999.90;999.90;;;7.00;99.90;;;;;;4920001;29;20182;-91
2021/05/20 02:49:11;;;;;;;1999.90;999.90;;;6.90;99.90;;;;;;4919969;29;20194;-91
2021/05/20 02:51:40;;;;;;;1999.90;999.90;;;6.90;99.90;;;;;;4920102;29;20193;-91
2021/05/20 02:54:06;;;;;;;1999.90;999.90;;;6.90;99.90;;;;;;4920141;29;20182;-91
2021/05/20 02:56:31;;;;;;;1999.90;999.90;;;6.90;99.90;;;;;;4919913;29;20524;-91
2021/05/20 02:58:57;;;;;;;1999.90;999.90;;;6.90;99.90;;;;;;4919820;29;20182;-92
2021/05/20 03:01:24;;;;;;;1999.90;999.90;;;6.80;99.90;;;;;;4919923;29;20187;-92
2021/05/20 03:03:52;;;;;;;1999.90;999.90;;;6.90;99.90;;;;;;4919685;29;20222;-91
2021/05/20 03:06:18;;;;;;;1999.90;999.90;;;6.90;99.90;;;;;;4919827;29;20191;-90
2021/05/20 03:08:47;;;;;;;1999.90;999.90;;;6.80;99.90;;;;;;4919726;29;20201;-91
2021/05/20 03:11:13;;;;;;;1999.90;999.90;;;6.80;99.90;;;;;;4919229;29;20182;-91
2021/05/20 03:13:38;;;;;;;1999.90;999.90;;;6.80;99.90;;;;;;4919402;29;20201;-91
2021/05/20 03:16:04;;;;;;;1999.90;999.90;;;6.70;99.90;;;;;;4919324;29;20190;-91
2021/05/20 03:18:32;;;;;;;1999.90;999.90;;;6.80;99.90;;;;;;4919463;29;20647;-91
2021/05/20 03:20:58;;;;;;;1999.90;999.90;;;6.70;99.90;;;;;;4919199;29;20190;-91
2021/05/20 03:23:27;;;;;;;1999.90;999.90;;;6.70;99.90;;;;;;4919530;29;20209;-91
2021/05/20 03:25:52;;;;;;;1999.90;999.90;;;6.70;99.90;;;;;;4919451;29;20190;-90
2021/05/20 03:28:18;;;;;;;1999.90;999.90;;;6.70;99.90;;;;;;4919390;29;20242;-91
2021/05/20 03:30:46;;;;;;;1999.90;999.90;;;6.70;99.90;;;;;;4919175;29;20692;-91
2021/05/20 03:33:12;;;;;;;1999.90;999.90;;;6.70;99.90;;;;;;4919093;29;20182;-92
2021/05/20 03:35:38;;;;;;;1999.90;999.90;;;6.70;99.90;;;;;;4919362;29;20190;-90
2021/05/20 03:38:03;;;;;;;1999.90;999.90;;;6.70;99.90;;;;;;4919248;29;20279;-92
2021/05/20 03:40:29;;;;;;;1999.90;999.90;;;6.70;99.90;;;;;;4918810;29;20180;-91
2021/05/20 03:42:57;;;;;;;1999.90;999.90;;;6.70;99.90;;;;;;4918944;29;20662;-91
2021/05/20 03:45:23;;;;;;;1999.90;999.90;;;6.60;99.90;;;;;;4919152;29;20206;-91
2021/05/20 03:47:54;;;;;;;1999.90;999.90;;;6.70;99.90;;;;;;4919038;29;20194;-92
2021/05/20 03:50:20;;;;;;;1999.90;999.90;;;6.70;99.90;;;;;;4918832;29;20182;-91
2021/05/20 03:52:45;;;;;;;1999.90;999.90;;;6.70;99.90;;;;;;4918480;29;20321;-90
2021/05/20 03:55:11;;;;;;;1999.90;999.90;;;6.70;99.90;;;;;;4908740;29;20179;-90
2021/05/20 03:57:37;;;;;;;1999.90;999.90;;;6.60;99.90;;;;;;4910804;29;20554;-90
2021/05/20 04:00:07;;;;;;;1999.90;999.90;;;6.60;99.90;;;;;;4919601;29;20269;-90
2021/05/20 04:02:32;;;;;;;1999.90;999.90;;;6.60;99.90;;;;;;4918510;29;20202;-90
2021/05/20 04:04:58;;;;;;;1999.90;999.90;;;6.70;99.90;;;;;;4918844;29;20204;-91
2021/05/20 04:07:24;;;;;;;1999.90;999.90;;;6.70;99.90;;;;;;4918586;29;20289;-90
2021/05/20 04:09:50;;;;;;;1999.90;999.90;;;6.60;99.90;;;;;;4918528;29;20698;-89
2021/05/20 04:12:37;;;;;;;1999.90;999.90;;;6.60;99.90;;;;;;4918101;29;20193;-92
2021/05/20 04:15:04;;;;;;;1999.90;999.90;;;6.70;99.90;;;;;;4920099;29;20205;-89
2021/05/20 04:17:36;;;;;;;1999.90;999.90;;;6.80;99.90;;;;;;4918428;29;20664;-90
2021/05/20 04:20:02;;;;;;;1999.90;999.90;;;6.90;99.90;;;;;;4902402;29;20246;-90
2021/05/20 04:29:33;;;;;;;1999.90;999.90;;;7.00;99.90;;;;;;4880543;29;20178;-93
2021/05/20 04:35:35;;;;;;;1999.90;999.90;;;7.00;99.90;;;;;;4880271;29;20171;-91
2021/05/20 04:38:10;;;;;;;1999.90;999.90;;;7.00;99.90;;;;;;4909489;29;20193;-91
2021/05/20 04:40:50;;;;;;;;;;;;;;;;;;;;;
2021/05/20 04:43:25;;;;;;;1999.90;999.90;;;7.20;99.90;;;;;;4914900;29;20360;-90
2021/05/20 04:47:05;;;;;;;1999.90;999.90;;;7.20;99.90;;;;;;4919266;29;20227;-92
2021/05/20 04:50:35;;;;;;;;;;;;;;;;;;;;;
2021/05/20 05:01:40;;;;;;;1999.90;999.90;;;7.60;99.90;;;;;;5319725;23;20237;-96
2021/05/20 05:04:32;;;;;;;1999.90;999.90;;;7.70;99.90;;;;;;4918198;29;20242;-93
2021/05/20 05:06:58;;;;;;;1999.90;999.90;;;7.80;99.90;;;;;;4917968;29;20189;-92
2021/05/20 05:09:24;;;;;;;1999.90;999.90;;;7.90;99.90;;;;;;4917781;29;20210;-89
2021/05/20 05:11:50;;;;;;;1999.90;999.90;;;7.90;99.90;;;;;;4918576;29;20186;-92
2021/05/20 05:14:17;;;;;;;1999.90;999.90;;;8.10;99.90;;;;;;4916935;29;20685;-92
2021/05/20 05:17:01;;;;;;;1999.90;999.90;;;8.10;99.90;;;;;;4917264;29;20196;-92
2021/05/20 05:19:32;;;;;;;1999.90;999.90;;;8.20;99.90;;;;;;4918071;29;20185;-93
2021/05/20 05:22:01;;;;;;;1999.90;999.90;;;8.30;99.90;;;;;;4905912;29;20606;-93
2021/05/20 05:24:27;;;;;;;1999.90;999.90;;;8.50;99.90;;;;;;4907040;29;20187;-91
2021/05/20 05:26:52;;;;;;;1999.90;999.90;;;8.70;99.90;;;;;;4911011;29;20193;-92
2021/05/20 05:31:54;;;;;;;1999.90;999.90;;;9.00;99.90;;;;;;5243411;23;20241;-92
2021/05/20 05:34:22;;;;;;;1999.90;999.90;;;9.30;99.90;;;;;;4904600;29;20189;-91
2021/05/20 05:36:48;;;;;;;1999.90;999.90;;;9.70;99.90;;;;;;4905906;29;20186;-91
2021/05/20 05:39:14;;;;;;;1999.90;999.90;;;9.90;99.90;;;;;;4896567;29;20319;-92
2021/05/20 05:41:46;;;;;;;1999.90;999.90;;;10.00;99.90;;;;;;4895737;29;20325;-92
2021/05/20 05:44:19;;;;;;;1999.90;999.90;;;10.20;99.90;;;;;;4896103;29;20194;-91
2021/05/20 05:46:45;;;;;;;1999.90;999.90;;;10.40;99.90;;;;;;4896136;29;20191;-90
2021/05/20 05:49:14;;;;;;;1999.90;999.90;;;10.70;99.90;;;;;;4896981;29;20190;-91
2021/05/20 05:51:50;;;;;;;1999.90;999.90;;;10.90;99.90;;;;;;4896762;29;20187;-91
2021/05/20 05:54:16;;;;;;;1999.90;999.90;;;10.90;99.90;;;;;;4897665;29;20190;-90
2021/05/20 05:56:42;;;;;;;1999.90;999.90;;;10.90;99.90;;;;;;4898453;29;20247;-90
2021/05/20 05:59:08;;;;;;;1999.90;999.90;;;11.00;99.90;;;;;;4897866;29;20281;-91
2021/05/20 06:01:39;;;;;;;1999.90;999.90;;;10.80;99.90;;;;;;4897812;29;20265;-90
2021/05/20 06:04:08;;;;;;;1999.90;999.90;;;11.20;99.90;;;;;;4897891;29;20213;-90
2021/05/20 06:06:38;;;;;;;1999.90;999.90;;;11.20;99.90;;;;;;4898192;29;20183;-90
2021/05/20 06:09:07;;;;;;;1999.90;999.90;;;11.40;99.90;;;;;;4898155;29;20186;-90
2021/05/20 06:11:36;;;;;;;1999.90;999.90;;;11.30;99.90;;;;;;4897999;29;20241;-90
2021/05/20 06:14:05;;;;;;;1999.90;999.90;;;11.50;99.90;;;;;;4897603;29;20182;-90
2021/05/20 06:16:34;;;;;;;1999.90;999.90;;;11.60;99.90;;;;;;4897663;29;20179;-90
2021/05/20 06:19:03;;;;;;;1999.90;999.90;;;11.50;99.90;;;;;;4897672;29;20187;-90
2021/05/20 06:21:31;;;;;;;1999.90;999.90;;;11.60;99.90;;;;;;4897707;29;20190;-91
2021/05/20 06:23:57;;;;;;;1999.90;999.90;;;11.80;99.90;;;;;;4897547;29;20281;-91
2021/05/20 06:26:24;;;;;;;1999.90;999.90;;;11.90;99.90;;;;;;4897610;29;20183;-91
2021/05/20 06:28:50;;;;;;;1999.90;999.90;;;12.00;99.90;;;;;;4897761;29;20195;-90
2021/05/20 06:31:16;;;;;;;1999.90;999.90;;;12.00;99.90;;;;;;4897613;29;20536;-89
2021/05/20 06:33:41;;;;;;;1999.90;999.90;;;12.00;99.90;;;;;;4898252;29;20189;-91
2021/05/20 06:36:08;;;;;;;1999.90;999.90;;;12.00;99.90;;;;;;4897550;29;20567;-91
2021/05/20 06:38:33;;;;;;;1999.90;999.90;;;12.10;99.90;;;;;;4897566;29;20266;-90
2021/05/20 06:41:02;;;;;;;1999.90;999.90;;;12.20;99.90;;;;;;4897616;29;20292;-90
2021/05/20 06:43:30;;;;;;;1999.90;999.90;;;12.30;99.90;;;;;;4897366;29;20214;-91
2021/05/20 06:45:56;;;;;;;1999.90;999.90;;;12.40;99.90;;;;;;4897390;29;20190;-91
2021/05/20 06:48:22;;;;;;;1999.90;999.90;;;12.50;99.90;;;;;;4897696;29;20182;-92
2021/05/20 06:50:48;;;;;;;1999.90;999.90;;;12.60;99.90;;;;;;4897983;29;20643;-90
2021/05/20 06:53:22;;;;;;;1999.90;999.90;;;12.80;99.90;;;;;;4897600;29;20259;-91
2021/05/20 06:55:48;;;;;;;1999.90;999.90;;;12.80;99.90;;;;;;4897336;29;20254;-91
2021/05/20 07:00:58;;;;;;;1999.90;999.90;;;12.90;99.90;;;;;;4898736;29;20213;-90
2021/05/20 07:03:23;;;;;;;1999.90;999.90;;;12.90;99.90;;;;;;4899151;29;20690;-90
2021/05/20 07:05:53;;;;;;;1999.90;999.90;;;13.10;99.90;;;;;;4900872;29;20666;-90
2021/05/20 07:11:01;;;;;;;1999.90;999.90;;;13.40;99.90;;;;;;5075361;27;1701791;-89
2021/05/20 07:13:27;;;;;;;1999.90;999.90;;;13.50;99.90;;;;;;5093846;28;20652;-89
2021/05/20 07:15:54;;;;;;;1999.90;999.90;;;13.70;99.90;;;;;;5094449;28;20257;-89
2021/05/20 07:18:19;;;;;;;1999.90;999.90;;;13.90;99.90;;;;;;5093786;28;20231;-89
2021/05/20 07:20:45;;;;;;;1999.90;999.90;;;13.90;99.90;;;;;;5093809;28;20574;-89
2021/05/20 07:23:16;;;;;;;1999.90;999.90;;;13.90;99.90;;;;;;5096112;28;20174;-89
2021/05/20 07:25:45;;;;;;;1999.90;999.90;;;14.00;99.90;;;;;;5099441;28;20171;-90
2021/05/20 07:28:12;;;;;;;1999.90;999.90;;;14.10;99.90;;;;;;5093357;28;20262;-89
2021/05/20 07:30:38;;;;;;;1999.90;999.90;;;14.30;99.90;;;;;;5093666;28;20283;-89
2021/05/20 07:33:05;;;;;;;1999.90;999.90;;;14.30;99.90;;;;;;5093335;28;20539;-90
2021/05/20 07:35:33;;;;;;;1999.90;999.90;;;14.50;99.90;;;;;;5093063;28;20203;-89
2021/05/20 07:38:08;;;;;;;1999.90;999.90;;;14.70;99.90;;;;;;5091345;28;20642;-89
2021/05/20 07:40:34;;;;;;;1999.90;999.90;;;14.90;99.90;;;;;;5093234;28;20171;-92
2021/05/20 07:43:05;;;;;;;1999.90;999.90;;;14.90;99.90;;;;;;5097595;28;20267;-90
2021/05/20 07:45:31;;;;;;;1999.90;999.90;;;15.00;99.90;;;;;;5093295;28;20664;-90
2021/05/20 07:47:57;;;;;;;1999.90;999.90;;;15.00;99.90;;;;;;5093153;28;20262;-89
2021/05/20 07:50:23;;;;;;;1999.90;999.90;;;15.20;99.90;;;;;;5092706;28;20206;-89
2021/05/20 07:52:49;;;;;;;1999.90;999.90;;;15.40;99.90;;;;;;5092765;28;20755;-89
2021/05/20 07:55:15;;;;;;;1999.90;999.90;;;15.20;99.90;;;;;;5092664;28;20171;-88
2021/05/20 07:57:42;;;;;;;1999.90;999.90;;;15.10;99.90;;;;;;5092799;28;20630;-89
2021/05/20 08:00:10;;;;;;;1999.90;999.90;;;15.20;99.90;;;;;;5092613;28;20588;-90
2021/05/20 08:05:07;;;;;;;1999.90;999.90;;;15.00;99.90;;;;;;5110722;28;20185;-89
2021/05/20 08:10:49;;;;;;;1999.90;999.90;;;15.30;99.90;;;;;;5110527;28;20226;-89
2021/05/20 08:13:09;;;;;;;1999.90;999.90;;;15.50;99.90;;;;;;5109978;28;20278;-89
2021/05/20 08:15:35;;;;;;;1999.90;999.90;;;15.80;99.90;;;;;;5092438;28;20244;-88
2021/05/20 08:18:01;;;;;;;1999.90;999.90;;;15.90;99.90;;;;;;5093000;28;20172;-90
2021/05/20 08:20:30;;;;;;;1999.90;999.90;;;16.00;99.90;;;;;;5089400;28;20179;-89
2021/05/20 08:22:59;;;;;;;1999.90;999.90;;;15.80;99.90;;;;;;5078368;28;20548;-90
2021/05/20 08:26:25;;;;;;;1999.90;999.90;;;16.00;99.90;;;;;;5078710;28;20514;-93
2021/05/20 10:22:50;;;;;;;1999.90;999.90;;;17.40;99.90;;;;;;5489118;22;20238;-90
2021/05/20 10:25:19;;;;;;;1999.90;999.90;;;17.60;99.90;;;;;;4978265;28;20198;-90
2021/05/20 10:27:45;;;;;;;1999.90;999.90;;;17.60;99.90;;;;;;4978026;28;20171;-90
2021/05/20 10:30:16;;;;;;;1999.90;999.90;;;17.70;99.90;;;;;;4977827;28;20297;-90
2021/05/20 11:20:39;;;;;;;1999.90;999.90;;;17.60;99.90;;;;;;5012608;28;20198;-93
2021/05/20 11:29:20;;;;;;;1999.90;999.90;;;18.00;99.90;;;;;;5155868;23;20240;-93
2021/05/20 11:31:49;;;;;;;1999.90;999.90;;;17.80;99.90;;;;;;4979118;28;20175;-92
2021/05/20 11:36:43;;;;;;;1999.90;999.90;;;17.70;99.90;;;;;;4995101;28;20175;-92
2021/05/20 11:39:17;;;;;;;1999.90;999.90;;;17.50;99.90;;;;;;4977996;28;20171;-90
2021/05/20 11:41:44;;;;;;;1999.90;999.90;;;17.50;99.90;;;;;;4978148;28;20191;-91
2021/05/20 11:44:14;;;;;;;1999.90;999.90;;;17.50;99.90;;;;;;4978326;28;20210;-91
2021/05/20 11:46:43;;;;;;;1999.90;999.90;;;17.50;99.90;;;;;;4976887;28;20241;-91
2021/05/20 11:49:26;;;;;;;1999.90;999.90;;;17.50;99.90;;;;;;4977341;28;20224;-89
2021/05/20 11:51:54;;;;;;;1999.90;999.90;;;17.50;99.90;;;;;;4977198;28;20180;-89
2021/05/20 11:54:22;;;;;;;1999.90;999.90;;;17.70;99.90;;;;;;4976886;28;20774;-88
2021/05/20 11:56:53;;;;;;;1999.90;999.90;;;17.90;99.90;;;;;;4979716;28;20334;-88
2021/05/20 11:59:46;;;;;;;1999.90;999.90;;;18.00;99.90;;;;;;4981077;28;20183;-89
2021/05/20 12:02:19;;;;;;;1999.90;999.90;;;17.90;99.90;;;;;;4980835;28;20266;-89
2021/05/20 12:04:45;;;;;;;1999.90;999.90;;;17.80;99.90;;;;;;4980325;28;20190;-89
2021/05/20 12:07:19;;;;;;;1999.90;999.90;;;17.60;99.90;;;;;;4980584;28;20563;-90
2021/05/20 12:09:47;;;;;;;1999.90;999.90;;;17.50;99.90;;;;;;4981293;28;20218;-89
2021/05/20 12:12:16;;;;;;;1999.90;999.90;;;17.60;99.90;;;;;;4980994;28;20619;-88
2021/05/20 12:14:43;;;;;;;1999.90;999.90;;;17.50;99.90;;;;;;4980861;28;20649;-88
2021/05/20 12:17:12;;;;;;;1999.90;999.90;;;17.20;99.90;;;;;;4981035;28;20709;-89
2021/05/20 12:19:43;;;;;;;1999.90;999.90;;;17.00;99.90;;;;;;4980411;28;20262;-89
2021/05/20 12:22:16;;;;;;;1999.90;999.90;;;16.70;99.90;;;;;;4980670;28;20279;-90
2021/05/20 12:24:45;;;;;;;1999.90;999.90;;;16.80;99.90;;;;;;4980724;28;20270;-88
2021/05/20 12:27:15;;;;;;;1999.90;999.90;;;16.70;99.90;;;;;;4980098;28;20186;-88
2021/05/20 12:29:43;;;;;;;1999.90;999.90;;;16.60;99.90;;;;;;4979735;28;20599;-89
2021/05/20 12:32:29;;;;;;;1999.90;999.90;;;16.60;99.90;;;;;;4980087;28;20171;-89
2021/05/20 12:35:18;;;;;;;1999.90;999.90;;;16.30;99.90;;;;;;4980048;28;20181;-90
2021/05/20 12:37:53;;;;;;;1999.90;999.90;;;16.30;99.90;;;;;;4979951;28;20183;-89
2021/05/20 12:40:24;;;;;;;1999.90;999.90;;;16.40;99.90;;;;;;4979389;28;20175;-88
2021/05/20 12:43:11;;;;;;;1999.90;999.90;;;16.70;99.90;;;;;;4980076;28;20183;-89
2021/05/20 12:56:05;;;;;;;;;;;;;;;;;;;;;
2021/05/20 13:02:57;;;;;;;;;;;;;;;;;;;;;
2021/05/20 13:17:15;;;;;;;1999.90;999.90;;;16.90;99.90;;;;;;4895169;29;20198;-92
2021/05/20 14:29:15;;;;;;;1999.90;999.90;;;16.00;99.90;;;;;;4860666;29;20258;-90
2021/05/20 14:31:41;;;;;;;1999.90;999.90;;;15.90;99.90;;;;;;4861465;29;20562;-90
2021/05/20 14:34:07;;;;;;;1999.90;999.90;;;16.00;99.90;;;;;;4862097;29;20248;-92
2021/05/20 14:36:36;;;;;;;1999.90;999.90;;;15.90;99.90;;;;;;4866717;29;20176;-91
2021/05/20 14:39:11;;;;;;;1999.90;999.90;;;16.00;99.90;;;;;;4866301;29;20202;-91
2021/05/20 14:41:44;;;;;;;1999.90;999.90;;;16.00;99.90;;;;;;4862987;29;20187;-92
2021/05/20 14:44:10;;;;;;;1999.90;999.90;;;16.20;99.90;;;;;;4861479;29;20243;-91
2021/05/20 14:46:36;;;;;;;1999.90;999.90;;;16.30;99.90;;;;;;4861683;29;20659;-91
2021/05/20 14:49:11;;;;;;;1999.90;999.90;;;16.30;99.90;;;;;;4861816;29;20546;-91
2021/05/20 14:52:06;;;;;;;1999.90;999.90;;;16.20;99.90;;;;;;4861729;29;20192;-91
2021/05/20 14:54:43;;;;;;;1999.90;999.90;;;16.20;99.90;;;;;;4861746;29;20632;-91
